createdAt,value
2023-04-04T00:00:27.989Z,97869.56
2023-04-04T00:04:28.488Z,97865.34
2023-04-04T00:08:29.099Z,97867.81
2023-04-04T00:12:30.874Z,97858.94
2023-04-04T00:16:34.254Z,97861.56
2023-04-04T00:20:34.861Z,97850.44
2023-04-04T00:24:35.246Z,97848.72
2023-04-04T00:28:35.695Z,97844.81
2023-04-04T00:32:39.032Z,97840.22
2023-04-04T00:36:39.723Z,97837.09
2023-04-04T00:40:46.477Z,97830.81
2023-04-04T00:44:47.090Z,97817.41
2023-04-04T00:48:52.648Z,97808.69
2023-04-04T00:52:53.170Z,97815.78
2023-04-04T00:56:55.644Z,97819.00
2023-04-04T01:00:56.558Z,97783.41
2023-04-04T01:05:00.235Z,97809.78
2023-04-04T01:09:01.762Z,97807.00
2023-04-04T01:13:02.281Z,97800.53
2023-04-04T01:17:04.807Z,97806.59
2023-04-04T01:21:14.329Z,97809.38
2023-04-04T01:25:16.075Z,97802.47
2023-04-04T01:29:23.055Z,97800.63
2023-04-04T01:33:31.678Z,97776.47
2023-04-04T01:37:40.149Z,97789.41
2023-04-04T01:41:44.458Z,97789.16
2023-04-04T01:45:48.129Z,97787.97
2023-04-04T01:49:48.625Z,97788.91
2023-04-04T01:53:49.523Z,97773.25
2023-04-04T01:57:50.171Z,97775.56
2023-04-04T02:01:54.249Z,97770.81
2023-04-04T02:05:54.978Z,97779.53
2023-04-04T02:09:55.381Z,97778.31
2023-04-04T02:13:55.886Z,97777.63
2023-04-04T02:18:01.870Z,97775.69
2023-04-04T02:22:02.964Z,97781.06
2023-04-04T02:26:03.648Z,97784.69
2023-04-04T02:30:03.986Z,97773.97
2023-04-04T02:34:07.343Z,97773.66
2023-04-04T02:38:07.969Z,97769.09
2023-04-04T02:42:15.406Z,97772.69
2023-04-04T02:46:21.619Z,97773.97
2023-04-04T02:50:30.101Z,97771.66
2023-04-04T02:54:34.247Z,97772.03
2023-04-04T02:58:36.719Z,97773.44
2023-04-04T03:02:37.703Z,97777.19
2023-04-04T03:06:41.595Z,97777.47
2023-04-04T03:10:43.021Z,97770.59
2023-04-04T03:14:44.155Z,97736.28
2023-04-04T03:18:45.068Z,97770.34
2023-04-04T03:22:48.739Z,97767.72
2023-04-04T03:26:50.102Z,97777.25
2023-04-04T03:30:50.607Z,97774.31
2023-04-04T03:34:52.327Z,97773.03
2023-04-04T03:38:55.846Z,97773.16
2023-04-04T03:42:56.579Z,97766.47
2023-04-04T03:46:57.214Z,97767.81
2023-04-04T03:50:59.596Z,97766.50
2023-04-04T03:55:04.845Z,97761.91
2023-04-04T03:59:05.229Z,97771.72
2023-04-04T04:03:06.461Z,97764.50
2023-04-04T04:07:08.148Z,97763.47
2023-04-04T04:11:12.111Z,97769.69
2023-04-04T04:15:13.300Z,97770.13
2023-04-04T04:19:18.240Z,97768.63
2023-04-04T04:23:20.143Z,97765.72
2023-04-04T04:27:26.765Z,97768.28
2023-04-04T04:31:28.577Z,97769.91
2023-04-04T04:35:31.077Z,97768.41
2023-04-04T04:39:32.940Z,97764.59
2023-04-04T04:43:55.650Z,97766.72
2023-04-04T04:47:59.138Z,97760.59
2023-04-04T04:51:59.878Z,97768.69
2023-04-04T04:56:01.008Z,97765.97
2023-04-04T05:00:04.662Z,97768.63
2023-04-04T05:04:05.529Z,97771.84
2023-04-04T05:08:14.164Z,97760.91
2023-04-04T05:12:25.916Z,97768.63
2023-04-04T05:16:29.496Z,97767.81
2023-04-04T05:20:32.260Z,97767.69
2023-04-04T05:24:34.812Z,97771.72
2023-04-04T05:28:36.132Z,97736.38
2023-04-04T05:32:42.168Z,97769.13
2023-04-04T05:36:51.081Z,97766.84
2023-04-04T05:40:52.013Z,97763.06
2023-04-04T05:44:52.573Z,97777.97
2023-04-04T05:48:57.286Z,97771.91
2023-04-04T05:52:59.688Z,97771.09
2023-04-04T05:57:00.406Z,97770.09
2023-04-04T06:01:16.601Z,97771.41
2023-04-04T06:05:21.130Z,97776.28
2023-04-04T06:09:21.674Z,97773.59
2023-04-04T06:13:23.325Z,97743.50
2023-04-04T06:17:28.894Z,97776.72
2023-04-04T06:21:32.264Z,97777.19
2023-04-04T06:25:33.387Z,97771.41
2023-04-04T06:29:35.029Z,97768.72
2023-04-04T06:33:36.724Z,97763.03
2023-04-04T06:37:40.393Z,97781.34
2023-04-04T06:41:53.640Z,97765.13
2023-04-04T06:45:59.917Z,97773.53
2023-04-04T06:50:00.443Z,97774.88
2023-04-04T06:54:04.229Z,97773.38
2023-04-04T06:58:04.898Z,97776.66
2023-04-04T07:02:05.492Z,97775.78
2023-04-04T07:06:06.793Z,97769.97
2023-04-04T07:10:12.043Z,97773.28
2023-04-04T07:14:12.364Z,97762.63
2023-04-04T07:18:13.241Z,97773.44
2023-04-04T07:22:13.683Z,97775.81
2023-04-04T07:26:16.947Z,97780.16
2023-04-04T07:30:18.743Z,97781.44
2023-04-04T07:34:20.339Z,97790.94
2023-04-04T07:38:20.916Z,97767.09
2023-04-04T07:42:25.962Z,97766.41
2023-04-04T07:46:27.988Z,97772.25
2023-04-04T07:50:28.831Z,97773.50
2023-04-04T07:54:29.251Z,97783.44
2023-04-04T07:58:34.229Z,97779.50
2023-04-04T08:02:34.569Z,97773.97
2023-04-04T08:06:35.810Z,97775.94
2023-04-04T08:10:36.746Z,97784.31
2023-04-04T08:14:40.122Z,97774.84
2023-04-04T08:18:40.910Z,97775.66
2023-04-04T08:22:42.412Z,97770.16
2023-04-04T08:26:48.988Z,97776.44
2023-04-04T08:30:57.208Z,97777.31
2023-04-04T08:34:58.428Z,97777.25
2023-04-04T08:39:00.767Z,97776.88
2023-04-04T08:43:03.916Z,97784.44
2023-04-04T08:47:11.280Z,97781.34
2023-04-04T08:51:15.122Z,97768.91
2023-04-04T08:55:20.450Z,97783.28
2023-04-04T08:59:26.177Z,97779.53
2023-04-04T09:03:33.403Z,97776.09
2023-04-04T09:07:36.472Z,97783.78
2023-04-04T09:11:42.252Z,97781.25
2023-04-04T09:15:52.173Z,97780.78
2023-04-04T09:19:55.894Z,97776.22
2023-04-04T09:24:03.504Z,97772.72
2023-04-04T09:28:06.186Z,97775.41
2023-04-04T09:32:12.071Z,97779.38
2023-04-04T09:36:19.202Z,97768.72
2023-04-04T09:40:23.982Z,97752.19
2023-04-04T09:44:30.960Z,97766.06
2023-04-04T09:48:35.034Z,97768.03
2023-04-04T09:52:39.236Z,97767.88
2023-04-04T09:56:43.733Z,97764.53
2023-04-04T10:00:57.314Z,97752.38
2023-04-04T10:05:06.046Z,97765.22
2023-04-04T10:09:11.934Z,97761.81
2023-04-04T10:13:14.701Z,97759.97
2023-04-04T10:17:16.532Z,97756.34
2023-04-04T10:21:17.704Z,97762.69
2023-04-04T10:25:22.179Z,97756.25
2023-04-04T10:29:28.096Z,97747.09
2023-04-04T10:33:47.821Z,97735.66
2023-04-04T10:38:00.082Z,97750.34
2023-04-04T10:42:05.916Z,97738.84
2023-04-04T10:46:15.644Z,97745.16
2023-04-04T10:50:21.565Z,97742.19
2023-04-04T10:54:27.538Z,97747.81
2023-04-04T10:58:32.066Z,97737.94
2023-04-04T11:03:00.078Z,97727.63
2023-04-04T11:07:24.721Z,97737.16
2023-04-04T11:11:27.206Z,97732.03
2023-04-04T11:15:31.324Z,97726.13
2023-04-04T11:20:05.799Z,97721.56
2023-04-04T11:24:19.571Z,97727.91
2023-04-04T11:28:48.915Z,97726.03
2023-04-04T11:33:06.059Z,97719.28
2023-04-04T11:37:21.044Z,97714.06
2023-04-04T11:41:24.205Z,97719.28
2023-04-04T11:45:29.927Z,97703.13
2023-04-04T11:49:38.227Z,97704.56
2023-04-04T11:53:38.617Z,97701.56
2023-04-04T11:57:46.862Z,97690.00
2023-04-04T12:01:48.729Z,97673.28
2023-04-04T12:05:53.342Z,97680.63
2023-04-04T12:09:56.269Z,97687.34
2023-04-04T12:14:00.394Z,97682.28
2023-04-04T12:18:03.213Z,97680.13
2023-04-04T12:22:08.464Z,97672.34
2023-04-04T12:26:13.320Z,97671.56
2023-04-04T12:30:17.453Z,97673.91
2023-04-04T12:34:25.425Z,97680.56
2023-04-04T12:38:30.890Z,97678.13
2023-04-04T12:42:36.351Z,97666.22
2023-04-04T12:46:41.774Z,97655.22
2023-04-04T12:50:57.421Z,97656.78
2023-04-04T12:59:11.891Z,97652.31
2023-04-04T13:03:20.502Z,97654.56
2023-04-04T13:07:26.068Z,97661.63
2023-04-04T13:12:03.325Z,97654.69
2023-04-04T13:16:05.380Z,97648.91
2023-04-04T13:20:06.252Z,97637.50
2023-04-04T13:24:09.211Z,97635.63
2023-04-04T13:28:14.605Z,97637.09
2023-04-04T13:32:15.018Z,97630.69
2023-04-04T13:36:18.274Z,97618.34
2023-04-04T13:40:21.555Z,97617.38
2023-04-04T13:44:28.466Z,97610.50
2023-04-04T13:48:29.157Z,97612.31
2023-04-04T13:52:29.729Z,97605.06
2023-04-04T13:56:30.109Z,97614.75
2023-04-04T14:00:34.208Z,97614.25
2023-04-04T14:04:34.860Z,97613.19
2023-04-04T14:08:35.597Z,97608.66
2023-04-04T14:12:35.982Z,97598.28
2023-04-04T14:16:42.688Z,97584.81
2023-04-04T14:20:44.669Z,97591.50
2023-04-04T14:24:45.079Z,97585.06
2023-04-04T14:28:45.756Z,97576.63
2023-04-04T14:32:49.883Z,97570.41
2023-04-04T14:36:51.348Z,97575.81
2023-04-04T14:40:52.713Z,97574.28
2023-04-04T14:44:53.213Z,97577.38
2023-04-04T14:48:56.642Z,97564.59
2023-04-04T14:52:59.200Z,97568.97
2023-04-04T14:57:02.579Z,97540.03
2023-04-04T15:01:04.842Z,97575.19
2023-04-04T15:05:10.893Z,97580.22
2023-04-04T15:09:12.011Z,97581.84
2023-04-04T15:13:13.884Z,97572.25
2023-04-04T15:17:14.994Z,97560.06
2023-04-04T15:21:18.411Z,97562.09
2023-04-04T15:25:18.954Z,97557.53
2023-04-04T15:29:19.404Z,97554.34
2023-04-04T15:33:20.152Z,97559.84
2023-04-04T15:37:23.567Z,97553.00
2023-04-04T15:41:24.489Z,97555.81
2023-04-04T15:45:27.548Z,97565.09
2023-04-04T15:49:29.176Z,97564.91
2023-04-04T15:53:32.941Z,97553.88
2023-04-04T15:57:33.696Z,97558.13
2023-04-04T16:01:36.775Z,97551.28
2023-04-04T16:05:37.634Z,97551.41
2023-04-04T16:09:41.176Z,97547.56
2023-04-04T16:13:41.653Z,97546.66
2023-04-04T16:17:42.101Z,97548.03
2023-04-04T16:21:42.943Z,97544.25
2023-04-04T16:25:47.497Z,97533.59
2023-04-04T16:29:47.931Z,97524.91
2023-04-04T16:33:48.346Z,97528.50
2023-04-04T16:37:49.928Z,97529.84
2023-04-04T16:41:53.200Z,97534.69
2023-04-04T16:45:53.777Z,97534.56
2023-04-04T16:49:55.180Z,97526.31
2023-04-04T16:53:56.484Z,97524.72
2023-04-04T16:58:00.287Z,97531.06
2023-04-04T17:02:01.500Z,97517.19
2023-04-04T17:06:02.460Z,97533.69
2023-04-04T17:10:03.271Z,97526.94
2023-04-04T17:14:06.327Z,97525.25
2023-04-04T17:18:07.313Z,97532.91
2023-04-04T17:22:08.022Z,97523.72
2023-04-04T17:26:08.557Z,97517.28
2023-04-04T17:30:14.506Z,97522.59
2023-04-04T17:34:15.889Z,97512.69
2023-04-04T17:38:16.589Z,97521.50
2023-04-04T17:42:18.416Z,97520.16
2023-04-04T17:46:21.499Z,97524.75
2023-04-04T17:50:23.527Z,97515.28
2023-04-04T17:54:27.119Z,97508.38
2023-04-04T17:58:29.131Z,97518.53
2023-04-04T18:02:33.858Z,97503.06
2023-04-04T18:06:34.652Z,97511.66
2023-04-04T18:10:37.697Z,97517.53
2023-04-04T18:14:41.503Z,97509.63
2023-04-04T18:18:45.283Z,97523.47
2023-04-04T18:22:48.620Z,97524.66
2023-04-04T18:26:52.386Z,97527.50
2023-04-04T18:30:53.313Z,97523.25
2023-04-04T18:34:56.355Z,97526.28
2023-04-04T18:38:56.847Z,97521.56
2023-04-04T18:42:57.470Z,97528.44
2023-04-04T18:47:00.716Z,97530.25
2023-04-04T18:51:04.699Z,97546.69
2023-04-04T18:55:06.494Z,97545.03
2023-04-04T18:59:09.883Z,97541.97
2023-04-04T19:03:13.012Z,97546.69
2023-04-04T19:07:22.265Z,97549.78
2023-04-04T19:11:23.192Z,97548.13
2023-04-04T19:15:25.797Z,97548.88
2023-04-04T19:19:26.813Z,97549.78
2023-04-04T19:23:34.464Z,97560.47
2023-04-04T19:27:36.478Z,97565.97
2023-04-04T19:31:37.097Z,97565.75
2023-04-04T19:35:54.755Z,97548.03
2023-04-04T19:39:59.306Z,97564.53
2023-04-04T19:43:59.719Z,97563.94
2023-04-04T19:48:11.386Z,97562.63
2023-04-04T19:52:12.295Z,97565.59
2023-04-04T19:56:19.793Z,97563.97
2023-04-04T20:00:26.175Z,97562.13
2023-04-04T20:04:28.539Z,97567.81
2023-04-04T20:08:41.812Z,97565.59
2023-04-04T20:12:46.057Z,97560.88
2023-04-04T20:16:48.195Z,97566.38
2023-04-04T20:21:01.914Z,97555.78
2023-04-04T20:25:03.288Z,97562.28
2023-04-04T20:29:10.336Z,97561.88
2023-04-04T20:33:38.189Z,97566.53
2023-04-04T20:37:39.449Z,97562.66
2023-04-04T20:41:40.387Z,97573.41
2023-04-04T20:45:47.332Z,97577.44
2023-04-04T20:49:47.662Z,97572.53
2023-04-04T20:53:48.240Z,97579.44
2023-04-04T20:57:50.837Z,97579.00
2023-04-04T21:01:54.004Z,97585.06
2023-04-04T21:05:56.374Z,97579.34
2023-04-04T21:10:21.592Z,97586.75
2023-04-04T21:14:26.678Z,97585.16
2023-04-04T21:18:34.275Z,97583.38
2023-04-04T21:22:35.210Z,97568.78
2023-04-04T21:26:37.512Z,97577.00
2023-04-04T21:30:47.720Z,97580.88
2023-04-04T21:34:51.335Z,97575.53
2023-04-04T21:38:54.638Z,97585.56
2023-04-04T21:42:56.488Z,97575.41
2023-04-04T21:46:57.413Z,97579.94
2023-04-04T21:51:00.668Z,97575.81
2023-04-04T21:55:01.133Z,97583.66
2023-04-04T21:59:02.140Z,97584.69
2023-04-04T22:03:04.982Z,97586.19
2023-04-04T22:07:07.947Z,97579.44
2023-04-04T22:11:13.643Z,97596.50
2023-04-04T22:15:17.805Z,97597.09
2023-04-04T22:19:18.169Z,97586.94
2023-04-04T22:23:23.087Z,97593.84
2023-04-04T22:27:25.488Z,97589.34
2023-04-04T22:31:26.134Z,97595.31
2023-04-04T22:35:26.768Z,97596.91
2023-04-04T22:39:35.571Z,97592.91
2023-04-04T22:43:38.474Z,97598.34
2023-04-04T22:47:38.960Z,97586.47
2023-04-04T22:51:44.279Z,97592.44
2023-04-04T22:55:47.500Z,97589.38
2023-04-04T22:59:48.112Z,97568.00
2023-04-04T23:03:48.857Z,97592.09
2023-04-04T23:07:49.746Z,97592.09
2023-04-04T23:11:52.896Z,97587.84
2023-04-04T23:15:53.557Z,97581.97
2023-04-04T23:19:54.285Z,97586.94
2023-04-04T23:23:54.617Z,97580.38
2023-04-04T23:27:57.481Z,97578.78
2023-04-04T23:31:58.147Z,97579.13
2023-04-04T23:35:58.455Z,97573.97
2023-04-04T23:39:59.073Z,97569.06
2023-04-04T23:44:02.258Z,97571.03
2023-04-04T23:48:04.851Z,97565.59
2023-04-04T23:52:05.563Z,97571.47
2023-04-04T23:56:06.518Z,97558.56
